Time;durP1;ratioP1;P1;durP2;ratioP2;P2;SDS_P1;SDS_P2;PMS_P1;PMS_P2;Temp;Humidity;BMP_temperature;BMP_pressure;BME280_temperature;BME280_humidity;BME280_pressure;Samples;Min_cycle;Max_cycle;Signal;HPM_P1;HPM_P2
2022/03/06 00:02:05;;;;;;;47.50;19.50;;;;;;;-1.31;72.70;102020.56;5019859;28;20406;-70
2022/03/06 00:04:31;;;;;;;43.67;18.00;;;;;;;-1.35;72.73;102030.03;5020833;28;20029;-70
2022/03/06 00:06:57;;;;;;;43.05;18.00;;;;;;;-1.39;73.03;102024.19;5004169;28;20029;-69
2022/03/06 00:09:23;;;;;;;39.60;17.60;;;;;;;-1.40;73.55;102034.41;5019470;28;20557;-69
2022/03/06 00:11:49;;;;;;;44.25;19.17;;;;;;;-1.46;73.58;102032.91;5018485;28;20031;-69
2022/03/06 00:14:14;;;;;;;48.45;19.58;;;;;;;-1.50;74.17;102038.97;5018079;28;20057;-69
2022/03/06 00:16:41;;;;;;;42.63;18.23;;;;;;;-1.53;74.54;102033.97;5022023;28;20042;-69
2022/03/06 00:19:06;;;;;;;44.67;18.83;;;;;;;-1.55;74.73;102035.72;4999412;28;20683;-69
2022/03/06 00:21:34;;;;;;;47.58;20.75;;;;;;;-1.54;74.95;102034.00;5023312;28;20117;-69
2022/03/06 00:24:00;;;;;;;45.20;19.00;;;;;;;-1.55;74.59;102037.44;5019971;28;20042;-69
2022/03/06 00:26:25;;;;;;;41.88;18.48;;;;;;;-1.57;74.14;102034.94;5026290;28;20045;-69
2022/03/06 00:28:52;;;;;;;42.10;18.13;;;;;;;-1.57;74.17;102038.31;5022159;28;20021;-69
2022/03/06 00:31:17;;;;;;;43.20;18.45;;;;;;;-1.58;73.72;102035.84;5003379;28;20042;-70
2022/03/06 00:33:43;;;;;;;42.13;17.67;;;;;;;-1.58;73.65;102038.38;5018811;28;20033;-69
2022/03/06 00:36:09;;;;;;;38.13;18.25;;;;;;;-1.58;73.74;102039.22;5004908;28;20107;-69
2022/03/06 00:38:34;;;;;;;38.42;17.85;;;;;;;-1.59;73.43;102034.97;5009672;28;20693;-69
2022/03/06 00:41:00;;;;;;;38.80;18.10;;;;;;;-1.61;73.47;102036.75;5021332;28;20038;-69
2022/03/06 00:43:28;;;;;;;45.13;19.00;;;;;;;-1.62;73.84;102040.19;5006177;28;20026;-69
2022/03/06 00:45:53;;;;;;;43.08;18.95;;;;;;;-1.62;74.43;102049.50;5002776;28;20480;-69
2022/03/06 00:48:19;;;;;;;44.47;18.75;;;;;;;-1.64;74.47;102036.84;5006949;28;20044;-69
2022/03/06 00:50:45;;;;;;;50.90;19.17;;;;;;;-1.65;74.89;102054.72;5023257;28;20038;-69
2022/03/06 00:53:10;;;;;;;44.35;19.15;;;;;;;-1.67;75.15;102053.94;5021393;28;20022;-69
2022/03/06 00:55:37;;;;;;;41.97;17.88;;;;;;;-1.69;75.29;102050.59;5005462;28;20021;-69
2022/03/06 00:58:06;;;;;;;43.88;18.27;;;;;;;-1.71;75.38;102048.09;4989320;28;20507;-69
2022/03/06 01:00:37;;;;;;;44.58;18.30;;;;;;;-1.72;75.38;102053.22;5004934;28;20499;-69
2022/03/06 01:03:04;;;;;;;45.85;19.27;;;;;;;-1.74;75.46;102060.06;5018485;28;20599;-68
2022/03/06 01:05:29;;;;;;;44.88;20.38;;;;;;;-1.74;75.67;102049.91;5008543;28;20033;-69
2022/03/06 01:07:55;;;;;;;43.30;18.55;;;;;;;-1.78;75.52;102056.78;5008658;28;20458;-68
2022/03/06 01:10:20;;;;;;;43.97;19.13;;;;;;;-1.81;75.56;102060.25;5018826;28;20037;-69
2022/03/06 01:12:46;;;;;;;52.65;19.20;;;;;;;-1.83;76.16;102058.63;5030410;23;20049;-65
2022/03/06 01:15:12;;;;;;;48.47;19.92;;;;;;;-1.86;76.08;102056.19;5000370;28;20045;-65
2022/03/06 01:17:37;;;;;;;45.13;19.52;;;;;;;-1.88;76.23;102058.78;5002271;28;20034;-65
2022/03/06 01:20:05;;;;;;;45.25;18.60;;;;;;;-1.89;76.66;102066.44;5001356;28;21843;-65
2022/03/06 01:22:30;;;;;;;47.33;20.98;;;;;;;-1.91;76.79;102069.00;5002393;28;20042;-65
2022/03/06 01:24:56;;;;;;;44.13;19.95;;;;;;;-1.92;76.89;102074.13;4992302;28;20026;-64
2022/03/06 01:27:21;;;;;;;48.10;20.30;;;;;;;-1.94;77.13;102074.22;4989578;28;20038;-65
2022/03/06 01:29:47;;;;;;;47.30;21.15;;;;;;;-1.99;76.75;102074.31;4995435;28;20033;-65
2022/03/06 01:32:12;;;;;;;49.97;21.58;;;;;;;-2.01;76.55;102075.25;4992440;28;20041;-65
2022/03/06 01:34:38;;;;;;;46.15;20.42;;;;;;;-2.03;76.69;102075.28;4983817;28;20030;-65
2022/03/06 01:37:03;;;;;;;48.78;22.58;;;;;;;-2.07;76.88;102078.81;4988181;28;20608;-64
2022/03/06 01:39:29;;;;;;;46.28;20.65;;;;;;;-2.10;77.06;102085.69;4991624;28;20069;-65
2022/03/06 01:41:54;;;;;;;47.42;20.30;;;;;;;-2.15;77.46;102070.53;4993151;28;20037;-65
2022/03/06 01:44:20;;;;;;;51.00;20.45;;;;;;;-2.17;77.50;102077.38;4990538;28;20042;-66
2022/03/06 01:46:46;;;;;;;47.70;19.48;;;;;;;-2.19;77.69;102077.41;4991296;28;20054;-65
2022/03/06 01:49:13;;;;;;;45.08;20.00;;;;;;;-2.21;78.01;102073.25;4990162;28;20186;-66
2022/03/06 01:51:38;;;;;;;45.58;20.02;;;;;;;-2.24;78.17;102073.34;4995989;28;20034;-65
2022/03/06 01:54:04;;;;;;;42.97;20.27;;;;;;;-2.26;78.64;102072.53;4995575;28;20084;-65
2022/03/06 01:56:29;;;;;;;44.15;19.10;;;;;;;-2.29;78.55;102073.47;4973359;28;20480;-65
2022/03/06 01:58:55;;;;;;;45.38;19.90;;;;;;;-2.30;78.67;102074.34;4975612;28;20060;-65
2022/03/06 02:01:21;;;;;;;41.33;18.27;;;;;;;-2.32;78.95;102073.53;4990931;28;20113;-65
2022/03/06 02:03:46;;;;;;;50.03;20.48;;;;;;;-2.33;78.73;102076.97;4998653;28;20524;-65
2022/03/06 02:06:11;;;;;;;50.95;19.42;;;;;;;-2.36;78.68;102084.69;4976311;28;20049;-65
2022/03/06 02:08:38;;;;;;;43.30;18.58;;;;;;;-2.41;78.67;102084.81;4984042;28;20041;-65
2022/03/06 02:11:05;;;;;;;45.05;19.00;;;;;;;-2.42;79.04;102092.47;4997674;28;20038;-65
2022/03/06 02:13:31;;;;;;;42.00;17.83;;;;;;;-2.46;79.16;102089.16;5000116;28;20500;-64
2022/03/06 02:15:57;;;;;;;44.28;19.25;;;;;;;-2.48;79.21;102090.09;4999247;28;20030;-65
2022/03/06 02:18:23;;;;;;;42.88;18.35;;;;;;;-2.52;79.38;102094.41;4990522;28;20038;-65
2022/03/06 02:20:49;;;;;;;42.90;18.10;;;;;;;-2.57;79.51;102086.91;4996769;28;20041;-65
2022/03/06 02:23:15;;;;;;;43.97;20.27;;;;;;;-2.60;79.40;102084.47;4994989;28;20064;-65
2022/03/06 02:25:41;;;;;;;46.92;20.25;;;;;;;-2.62;79.41;102081.13;4996020;28;20042;-65
2022/03/06 02:28:09;;;;;;;49.47;20.67;;;;;;;-2.63;79.68;102087.06;4993622;28;20101;-65
2022/03/06 02:30:37;;;;;;;46.38;18.98;;;;;;;-2.64;79.52;102080.31;4994894;28;20038;-65
2022/03/06 02:33:06;;;;;;;41.17;18.42;;;;;;;-2.67;79.41;102080.41;4987760;28;20045;-65
2022/03/06 02:35:32;;;;;;;41.15;18.05;;;;;;;-2.68;79.55;102083.81;4994534;28;20041;-65
2022/03/06 02:37:58;;;;;;;44.03;17.30;;;;;;;-2.69;79.59;102076.22;4992726;28;20030;-65
2022/03/06 02:40:24;;;;;;;42.72;17.52;;;;;;;-2.70;79.93;102084.72;4989785;28;20045;-65
2022/03/06 02:42:51;;;;;;;49.30;18.73;;;;;;;-2.74;80.00;102082.25;4992266;28;20110;-65
2022/03/06 02:45:18;;;;;;;40.83;18.73;;;;;;;-2.76;79.95;102089.09;4989136;28;20046;-65
2022/03/06 02:47:44;;;;;;;44.22;18.33;;;;;;;-2.78;80.12;102082.38;4978507;28;20080;-64
2022/03/06 02:50:16;;;;;;;42.30;18.02;;;;;;;-2.80;80.08;102084.13;4996285;28;20033;-65
2022/03/06 02:52:42;;;;;;;42.28;18.05;;;;;;;-2.82;80.06;102078.25;4991793;28;20042;-65
2022/03/06 02:55:09;;;;;;;42.75;19.02;;;;;;;-2.84;80.08;102072.38;4998385;28;20483;-65
2022/03/06 02:57:35;;;;;;;39.20;17.95;;;;;;;-2.87;79.74;102077.53;4991898;28;20022;-65
2022/03/06 03:00:01;;;;;;;40.55;18.00;;;;;;;-2.89;79.88;102069.94;4973828;28;20498;-65
2022/03/06 03:02:26;;;;;;;42.88;18.83;;;;;;;-2.90;80.16;102072.53;4973480;28;20034;-65
2022/03/06 03:04:52;;;;;;;48.08;18.88;;;;;;;-2.91;80.05;102075.94;4997174;28;20029;-65
2022/03/06 03:07:17;;;;;;;42.20;17.70;;;;;;;-2.94;80.21;102074.31;4989450;28;20044;-65
2022/03/06 03:09:43;;;;;;;40.58;17.25;;;;;;;-2.96;80.20;102071.81;4969939;28;20617;-65
2022/03/06 03:12:09;;;;;;;44.85;18.13;;;;;;;-2.96;80.21;102083.66;4992208;28;20138;-65
2022/03/06 03:14:35;;;;;;;44.63;17.90;;;;;;;-2.97;80.17;102085.38;4980284;28;20044;-65
2022/03/06 03:17:02;;;;;;;40.35;17.75;;;;;;;-2.98;80.09;102088.78;4998460;28;20045;-65
2022/03/06 03:19:28;;;;;;;38.50;16.88;;;;;;;-2.99;80.43;102084.59;4992065;28;20030;-65
2022/03/06 03:21:54;;;;;;;42.47;17.23;;;;;;;-2.99;80.59;102083.75;4992538;28;20038;-65
2022/03/06 03:24:20;;;;;;;39.17;17.42;;;;;;;-3.01;80.61;102082.97;4990120;28;20408;-65
2022/03/06 03:26:45;;;;;;;38.10;16.25;;;;;;;-3.01;80.97;102077.88;4996982;28;20039;-64
2022/03/06 03:29:11;;;;;;;40.63;16.60;;;;;;;-3.02;81.20;102086.34;4992191;28;20085;-65
2022/03/06 03:31:36;;;;;;;40.25;17.50;;;;;;;-3.05;81.47;102078.81;4972850;28;20035;-65
2022/03/06 03:34:02;;;;;;;40.75;16.73;;;;;;;-3.07;81.57;102091.56;4991160;28;20388;-65
2022/03/06 03:36:28;;;;;;;36.60;14.98;;;;;;;-3.08;81.42;102086.50;4977125;28;20064;-65
2022/03/06 03:38:54;;;;;;;41.53;16.38;;;;;;;-3.10;81.77;102089.09;4994455;28;20037;-65
2022/03/06 03:41:19;;;;;;;39.88;17.13;;;;;;;-3.11;81.84;102097.56;4971514;28;20043;-64
2022/03/06 03:43:45;;;;;;;40.22;17.02;;;;;;;-3.14;81.68;102095.94;4988437;28;20022;-65
2022/03/06 03:46:10;;;;;;;35.47;16.65;;;;;;;-3.16;81.42;102099.38;4991064;28;20062;-64
2022/03/06 03:48:36;;;;;;;40.42;17.25;;;;;;;-3.19;81.69;102110.41;4986354;28;20034;-64
2022/03/06 03:51:02;;;;;;;36.45;16.88;;;;;;;-3.21;82.09;102107.09;4999904;28;20026;-65
2022/03/06 03:53:27;;;;;;;46.28;18.20;;;;;;;-3.21;82.48;102106.25;4992339;28;20040;-65
2022/03/06 03:55:53;;;;;;;44.35;19.40;;;;;;;-3.23;82.45;102101.22;4990462;28;20033;-65
2022/03/06 03:58:19;;;;;;;49.03;19.90;;;;;;;-3.24;82.45;102107.19;4990757;28;20038;-64
2022/03/06 04:00:46;;;;;;;52.53;21.45;;;;;;;-3.24;82.62;102108.84;4990644;28;20038;-65
2022/03/06 04:03:13;;;;;;;57.22;23.45;;;;;;;-3.24;82.48;102113.94;4990622;28;20447;-65
2022/03/06 04:05:38;;;;;;;56.55;22.73;;;;;;;-3.27;82.67;102109.78;4989454;28;20100;-65
2022/03/06 04:08:04;;;;;;;48.05;20.35;;;;;;;-3.29;82.79;102118.28;4998768;28;20034;-65
2022/03/06 04:10:29;;;;;;;55.20;22.00;;;;;;;-3.32;83.02;102117.47;4993704;28;20041;-65
2022/03/06 04:12:55;;;;;;;56.35;22.80;;;;;;;-3.31;83.22;102123.41;4998401;28;20480;-65
2022/03/06 04:15:20;;;;;;;52.83;21.35;;;;;;;-3.34;83.15;102124.28;4988160;28;20711;-65
2022/03/06 04:17:46;;;;;;;51.13;20.73;;;;;;;-3.36;83.57;102126.03;4997932;28;20049;-65
2022/03/06 04:20:11;;;;;;;47.78;19.83;;;;;;;-3.36;83.64;102125.19;4996327;28;20030;-66
2022/03/06 04:22:37;;;;;;;54.70;21.52;;;;;;;-3.37;83.53;102123.50;4995640;28;20077;-67
2022/03/06 04:25:03;;;;;;;58.75;21.95;;;;;;;-3.38;83.74;102132.84;4989630;28;20022;-66
2022/03/06 04:27:29;;;;;;;53.42;22.08;;;;;;;-3.39;83.82;102125.25;4992643;28;20038;-66
2022/03/06 04:29:54;;;;;;;58.20;21.98;;;;;;;-3.39;83.97;102128.66;5004291;28;20481;-66
2022/03/06 04:32:20;;;;;;;55.33;21.98;;;;;;;-3.40;83.81;102123.59;4989446;28;20049;-65
2022/03/06 04:34:46;;;;;;;58.08;23.55;;;;;;;-3.41;84.08;102132.06;4992714;28;20053;-66
2022/03/06 04:37:11;;;;;;;62.13;23.63;;;;;;;-3.40;84.39;102133.75;4995680;28;20065;-65
2022/03/06 04:39:37;;;;;;;56.13;22.15;;;;;;;-3.44;83.97;102135.50;4990352;28;20042;-66
2022/03/06 04:42:03;;;;;;;58.38;20.52;;;;;;;-3.46;84.54;102133.88;4992238;28;20018;-66
2022/03/06 04:44:28;;;;;;;47.67;19.75;;;;;;;-3.49;84.34;102142.38;4991866;28;20489;-66
2022/03/06 04:46:54;;;;;;;45.65;19.40;;;;;;;-3.52;84.46;102150.91;4995477;28;20550;-66
2022/03/06 04:49:19;;;;;;;48.00;19.02;;;;;;;-3.53;84.53;102143.31;4989167;28;20038;-66
2022/03/06 04:51:45;;;;;;;52.70;17.98;;;;;;;-3.55;84.28;102152.66;4995549;28;20042;-65
2022/03/06 04:54:10;;;;;;;47.50;18.77;;;;;;;-3.55;84.43;102150.13;4990631;28;20037;-66
2022/03/06 04:56:36;;;;;;;39.05;18.15;;;;;;;-3.57;84.18;102151.84;4986139;28;20089;-66
2022/03/06 04:59:02;;;;;;;52.38;19.13;;;;;;;-3.58;84.45;102145.97;4991577;28;20027;-66
2022/03/06 05:01:27;;;;;;;48.63;20.42;;;;;;;-3.63;84.45;102147.75;4988852;28;20136;-66
2022/03/06 05:03:53;;;;;;;47.25;19.42;;;;;;;-3.65;84.45;102146.13;4986042;28;20042;-66
2022/03/06 05:06:18;;;;;;;47.40;20.40;;;;;;;-3.67;84.59;102157.97;4991209;28;20038;-66
2022/03/06 05:08:44;;;;;;;52.53;21.52;;;;;;;-3.69;84.65;102147.03;4987885;28;20577;-65
2022/03/06 05:11:10;;;;;;;50.15;19.70;;;;;;;-3.69;84.52;102152.09;4986226;28;20041;-66
2022/03/06 05:13:36;;;;;;;52.10;20.83;;;;;;;-3.72;84.71;102158.91;5000454;28;20040;-65
2022/03/06 05:16:02;;;;;;;53.20;22.00;;;;;;;-3.75;84.80;102153.91;4971298;28;20046;-66
2022/03/06 05:18:27;;;;;;;54.22;21.50;;;;;;;-3.75;85.00;102146.31;4996378;28;20046;-66
2022/03/06 05:20:53;;;;;;;55.25;21.33;;;;;;;-3.72;84.89;102153.00;4993128;28;20072;-66
2022/03/06 05:23:18;;;;;;;48.05;20.05;;;;;;;-3.75;85.11;102153.06;4997999;28;20033;-66
2022/03/06 05:25:46;;;;;;;46.45;20.10;;;;;;;-3.77;85.30;102153.13;4995054;28;20037;-66
2022/03/06 05:28:12;;;;;;;53.92;20.90;;;;;;;-3.77;85.63;102157.31;4995824;28;20048;-66
2022/03/06 05:30:38;;;;;;;58.85;22.95;;;;;;;-3.76;85.60;102156.47;4990362;28;20448;-66
2022/03/06 05:33:03;;;;;;;66.55;25.67;;;;;;;-3.76;86.14;102151.41;4992593;28;20050;-66
2022/03/06 05:35:29;;;;;;;60.40;24.38;;;;;;;-3.75;86.42;102151.38;4991923;28;20033;-66
2022/03/06 05:37:55;;;;;;;64.82;23.95;;;;;;;-3.75;86.54;102158.97;4994411;28;20031;-66
2022/03/06 05:40:21;;;;;;;68.53;26.35;;;;;;;-3.76;86.59;102157.31;5010377;28;20042;-66
2022/03/06 05:42:46;;;;;;;63.83;24.58;;;;;;;-3.76;86.89;102157.31;4992361;28;20037;-66
2022/03/06 05:45:12;;;;;;;67.90;25.33;;;;;;;-3.76;86.92;102159.84;4991714;28;20472;-66
2022/03/06 05:47:37;;;;;;;58.50;24.25;;;;;;;-3.79;87.11;102166.66;4995066;28;20069;-66
2022/03/06 05:50:05;;;;;;;58.80;24.67;;;;;;;-3.81;86.97;102171.75;4983938;28;20472;-67
2022/03/06 05:52:30;;;;;;;54.65;22.05;;;;;;;-3.82;87.11;102175.19;4989372;28;20049;-66
2022/03/06 05:54:56;;;;;;;55.20;22.02;;;;;;;-3.83;87.22;102176.03;4993921;28;20029;-66
2022/03/06 05:57:22;;;;;;;61.42;23.20;;;;;;;-3.84;87.11;102187.03;4994767;28;20027;-66
2022/03/06 05:59:47;;;;;;;60.00;22.50;;;;;;;-3.85;87.37;102187.91;4993300;28;20396;-66
2022/03/06 06:02:13;;;;;;;67.70;25.73;;;;;;;-3.80;87.41;102191.19;4997184;28;20030;-65
2022/03/06 06:04:41;;;;;;;67.97;26.20;;;;;;;-3.74;87.40;102193.59;4992188;28;20022;-66
2022/03/06 06:07:07;;;;;;;68.55;25.40;;;;;;;-3.75;87.62;102202.09;4993852;28;20513;-66
2022/03/06 06:09:32;;;;;;;70.72;26.63;;;;;;;-3.75;88.02;102206.28;4991452;28;20038;-66
2022/03/06 06:11:58;;;;;;;62.92;26.70;;;;;;;-3.76;88.05;102202.94;4996816;28;20097;-67
2022/03/06 06:14:24;;;;;;;69.53;26.90;;;;;;;-3.79;88.30;102220.72;4991325;28;20035;-66
2022/03/06 06:16:49;;;;;;;69.80;26.25;;;;;;;-3.79;88.63;102223.25;4997449;28;20045;-65
2022/03/06 06:19:15;;;;;;;79.13;27.38;;;;;;;-3.78;88.48;102221.59;4985493;28;20081;-66
2022/03/06 06:21:43;;;;;;;69.63;25.80;;;;;;;-3.79;88.67;102224.97;4990564;28;20048;-66
2022/03/06 06:24:13;;;;;;;70.25;28.10;;;;;;;-3.75;88.61;102229.97;4996278;28;20038;-66
2022/03/06 06:26:39;;;;;;;67.40;26.33;;;;;;;-3.75;88.62;102240.13;4991694;28;20032;-66
2022/03/06 06:29:05;;;;;;;71.10;27.90;;;;;;;-3.73;89.00;102232.47;4989383;28;20564;-66
2022/03/06 06:31:30;;;;;;;72.03;27.00;;;;;;;-3.71;89.02;102225.69;4991552;28;20030;-66
2022/03/06 06:33:56;;;;;;;72.25;28.30;;;;;;;-3.59;89.17;102235.56;4993670;28;20046;-66
2022/03/06 06:36:22;;;;;;;70.80;28.63;;;;;;;-3.58;89.15;102237.25;4987766;28;20038;-66
2022/03/06 06:38:48;;;;;;;66.85;27.55;;;;;;;-3.52;89.16;102242.19;4985576;28;20034;-67
2022/03/06 06:41:14;;;;;;;69.25;26.85;;;;;;;-3.48;89.42;102242.97;4987592;28;20030;-66
2022/03/06 06:43:42;;;;;;;69.50;26.75;;;;;;;-3.41;89.28;102246.22;4990774;28;20038;-66
2022/03/06 06:46:07;;;;;;;73.15;27.02;;;;;;;-3.39;89.36;102245.34;4988232;28;20038;-67
2022/03/06 06:48:33;;;;;;;67.43;27.42;;;;;;;-3.34;89.66;102247.78;4989628;28;20113;-66
2022/03/06 06:50:58;;;;;;;66.07;27.52;;;;;;;-3.30;89.36;102254.44;4992284;28;20031;-66
2022/03/06 06:53:24;;;;;;;68.75;27.90;;;;;;;-3.24;89.27;102256.03;4975176;28;20116;-66
2022/03/06 06:55:49;;;;;;;65.20;27.05;;;;;;;-3.17;89.24;102260.13;4995150;28;20034;-66
2022/03/06 06:58:15;;;;;;;70.43;27.65;;;;;;;-3.10;89.17;102253.22;4999015;28;20668;-66
2022/03/06 07:00:41;;;;;;;65.13;26.10;;;;;;;-3.01;89.07;102256.41;4992828;28;20038;-66
2022/03/06 07:03:06;;;;;;;64.55;26.85;;;;;;;-2.95;88.83;102255.44;4991337;28;20740;-66
2022/03/06 07:05:32;;;;;;;63.70;25.63;;;;;;;-2.88;88.46;102267.13;4979001;28;20041;-66
2022/03/06 07:07:57;;;;;;;65.72;26.13;;;;;;;-2.84;88.25;102263.66;4987072;28;20045;-65
2022/03/06 07:10:23;;;;;;;67.85;27.20;;;;;;;-2.75;88.09;102270.19;4991850;28;20052;-66
2022/03/06 07:12:55;;;;;;;63.05;26.38;;;;;;;-2.68;87.94;102271.75;5011413;28;20057;-66
2022/03/06 07:15:27;;;;;;;64.50;26.73;;;;;;;-2.57;87.55;102272.34;4982798;28;20069;-66
2022/03/06 07:17:54;;;;;;;;;;;;;;;-2.43;87.01;102271.19;4983918;28;20511;-66
2022/03/06 07:20:19;;;;;;;63.97;26.77;;;;;;;-2.38;86.70;102272.75;4992679;28;19917;-66
2022/03/06 07:22:45;;;;;;;63.53;25.45;;;;;;;-2.21;86.27;102267.25;4996048;28;20034;-66
2022/03/06 07:25:10;;;;;;;66.75;26.40;;;;;;;-1.76;85.57;102266.94;4989411;28;20034;-67
2022/03/06 07:27:36;;;;;;;59.80;26.23;;;;;;;-1.31;84.59;102273.38;4991978;28;20052;-67
2022/03/06 07:30:02;;;;;;;60.17;25.58;;;;;;;-0.73;82.54;102277.66;4988223;28;20034;-67
2022/03/06 07:32:28;;;;;;;56.25;24.25;;;;;;;-0.24;81.05;102278.66;4984806;28;20125;-67
2022/03/06 07:34:53;;;;;;;55.30;24.77;;;;;;;0.20;78.78;102273.78;4986024;28;20609;-67
2022/03/06 07:37:18;;;;;;;58.10;24.70;;;;;;;0.70;75.91;102273.72;4991777;28;20038;-67
2022/03/06 07:39:44;;;;;;;55.08;23.10;;;;;;;0.99;72.50;102276.09;4989606;28;20095;-67
2022/03/06 07:42:09;;;;;;;53.38;24.38;;;;;;;1.22;71.86;102275.19;4993905;28;20439;-67
2022/03/06 07:44:35;;;;;;;51.33;23.98;;;;;;;1.08;70.14;102275.72;4988328;28;20023;-68
2022/03/06 07:47:01;;;;;;;45.85;21.33;;;;;;;1.49;69.25;102281.78;4996935;28;20038;-68
2022/03/06 07:49:26;;;;;;;52.17;21.92;;;;;;;1.82;68.53;102277.94;4991087;28;20031;-68
2022/03/06 07:51:51;;;;;;;50.38;23.10;;;;;;;2.06;66.51;102289.69;4988988;28;20464;-68
2022/03/06 07:54:17;;;;;;;53.97;21.83;;;;;;;2.27;66.29;102282.84;4988808;28;20041;-69
2022/03/06 07:56:44;;;;;;;42.00;19.65;;;;;;;2.37;64.14;102290.13;4993138;28;20041;-69
2022/03/06 07:59:10;;;;;;;45.95;20.90;;;;;;;2.37;63.24;102288.38;4992475;28;20116;-68
2022/03/06 08:01:35;;;;;;;47.85;21.08;;;;;;;2.46;63.48;102288.00;4991430;28;20164;-68
2022/03/06 08:04:00;;;;;;;50.40;21.55;;;;;;;2.72;62.81;102294.53;4990830;28;20414;-69
2022/03/06 08:06:26;;;;;;;47.83;20.90;;;;;;;2.90;61.75;102298.00;4990201;28;20038;-68
2022/03/06 08:08:51;;;;;;;49.22;20.70;;;;;;;2.55;63.61;102298.75;4994087;28;20504;-68
2022/03/06 08:11:17;;;;;;;41.95;21.70;;;;;;;2.03;64.53;102297.50;4995312;28;20473;-69
2022/03/06 08:13:43;;;;;;;47.97;21.80;;;;;;;1.50;66.32;102293.66;4992278;28;20084;-68
2022/03/06 08:16:08;;;;;;;49.13;21.50;;;;;;;1.05;67.56;102298.84;4995626;28;20042;-68
2022/03/06 08:18:34;;;;;;;45.72;21.45;;;;;;;0.73;68.63;102299.13;5001541;28;20037;-68
2022/03/06 08:20:59;;;;;;;47.45;22.42;;;;;;;0.67;70.11;102301.91;4987457;28;20029;-68
2022/03/06 08:23:25;;;;;;;48.60;22.92;;;;;;;0.51;71.32;102301.63;4984299;28;20083;-68
2022/03/06 08:25:51;;;;;;;46.65;21.45;;;;;;;0.51;71.58;102303.31;4989894;28;20038;-68
2022/03/06 08:28:16;;;;;;;45.92;22.77;;;;;;;0.45;72.10;102312.03;4986793;28;20068;-68
2022/03/06 08:30:43;;;;;;;49.00;21.80;;;;;;;0.34;72.96;102317.53;4986173;28;20124;-68
2022/03/06 08:33:08;;;;;;;49.67;22.30;;;;;;;0.46;72.87;102318.00;4984682;28;20034;-68
2022/03/06 08:35:34;;;;;;;46.03;22.55;;;;;;;0.30;73.04;102313.41;4978368;28;20447;-69
2022/03/06 08:38:00;;;;;;;43.35;20.42;;;;;;;0.56;72.30;102320.16;4985488;28;20516;-69
2022/03/06 08:40:25;;;;;;;41.33;20.13;;;;;;;0.45;72.78;102319.69;4987053;28;20570;-69
2022/03/06 08:42:51;;;;;;;49.75;22.90;;;;;;;0.45;72.29;102324.78;4984981;28;20384;-69
2022/03/06 08:45:17;;;;;;;46.38;21.67;;;;;;;0.50;72.27;102315.25;4984412;28;20096;-69
2022/03/06 08:47:43;;;;;;;46.60;22.05;;;;;;;0.45;71.84;102317.13;4981594;28;20042;-69
2022/03/06 08:50:08;;;;;;;45.67;20.52;;;;;;;0.71;70.04;102325.63;4984978;28;20397;-69
2022/03/06 08:52:34;;;;;;;48.40;22.08;;;;;;;0.75;70.63;102325.47;4981516;28;20042;-69
2022/03/06 08:54:59;;;;;;;46.83;21.52;;;;;;;0.86;70.66;102321.66;4988574;28;20068;-69
2022/03/06 08:57:25;;;;;;;47.42;21.75;;;;;;;1.02;70.10;102319.38;4989426;28;20088;-69
2022/03/06 08:59:50;;;;;;;49.00;21.45;;;;;;;1.02;70.32;102322.78;4989038;28;20038;-69
2022/03/06 09:02:16;;;;;;;41.20;19.70;;;;;;;1.20;70.31;102331.47;4971079;28;20518;-69
2022/03/06 09:04:42;;;;;;;50.42;21.80;;;;;;;1.22;70.07;102329.69;4972918;28;20062;-69
2022/03/06 09:07:08;;;;;;;43.17;20.38;;;;;;;1.43;69.47;102328.06;4988094;28;20496;-69
2022/03/06 09:09:33;;;;;;;44.28;20.85;;;;;;;1.73;68.11;102320.91;4992591;28;20554;-70
2022/03/06 09:11:59;;;;;;;41.00;20.45;;;;;;;1.82;67.97;102329.09;4992061;28;20038;-69
2022/03/06 09:14:24;;;;;;;50.53;20.58;;;;;;;1.79;67.41;102330.06;4990317;28;20035;-70
2022/03/06 09:16:50;;;;;;;45.78;21.17;;;;;;;1.90;67.82;102335.56;4975305;28;20040;-69
2022/03/06 09:19:15;;;;;;;40.95;19.50;;;;;;;1.88;67.62;102328.84;4992369;28;20041;-69
2022/03/06 09:21:43;;;;;;;42.33;20.60;;;;;;;1.89;66.03;102335.63;4994175;28;20055;-69
2022/03/06 09:24:09;;;;;;;37.38;19.73;;;;;;;1.88;66.79;102331.41;4989869;28;20069;-69
2022/03/06 09:26:35;;;;;;;37.80;18.75;;;;;;;2.20;66.73;102332.63;4991408;28;20407;-69
2022/03/06 09:29:01;;;;;;;42.25;21.10;;;;;;;2.36;66.68;102337.13;4994542;28;20030;-69
2022/03/06 09:31:27;;;;;;;38.35;19.73;;;;;;;2.41;65.77;102336.03;4977483;28;20038;-69
2022/03/06 09:33:53;;;;;;;45.95;20.55;;;;;;;2.39;65.00;102326.72;4990479;28;20027;-69
2022/03/06 09:36:18;;;;;;;39.60;19.83;;;;;;;2.44;65.50;102330.75;4988354;28;20038;-69
2022/03/06 09:38:44;;;;;;;39.25;19.90;;;;;;;2.57;65.34;102325.13;4989473;28;20033;-69
2022/03/06 09:41:15;;;;;;;43.67;21.33;;;;;;;2.61;64.95;102330.03;4996246;28;20037;-69
2022/03/06 09:43:42;;;;;;;45.10;22.33;;;;;;;2.69;65.01;102324.56;4994549;28;20107;-69
2022/03/06 09:46:08;;;;;;;38.47;20.15;;;;;;;2.40;65.20;102329.22;4993002;28;20053;-69
2022/03/06 09:48:35;;;;;;;39.70;19.50;;;;;;;2.47;66.13;102325.53;4989759;28;20500;-68
2022/03/06 09:51:02;;;;;;;39.42;19.98;;;;;;;2.55;64.46;102325.19;4983534;28;20681;-69
2022/03/06 09:53:28;;;;;;;39.28;19.58;;;;;;;2.63;64.95;102329.97;5007335;28;20042;-69
2022/03/06 09:55:53;;;;;;;44.13;19.08;;;;;;;2.86;63.60;102322.13;4998884;28;20097;-69
2022/03/06 09:58:19;;;;;;;36.58;19.00;;;;;;;3.14;63.41;102320.84;4990661;28;20042;-69
2022/03/06 10:00:44;;;;;;;40.30;18.30;;;;;;;3.35;62.40;102320.75;4993736;28;20505;-69
2022/03/06 10:03:17;;;;;;;42.67;19.77;;;;;;;3.49;61.84;102313.25;4992926;28;20040;-68
2022/03/06 10:05:42;;;;;;;35.63;18.52;;;;;;;3.49;62.14;102320.94;4994358;28;20065;-69
2022/03/06 10:08:19;;;;;;;46.33;19.00;;;;;;;3.61;62.07;102329.78;4998280;28;20042;-69
2022/03/06 10:10:46;;;;;;;39.75;19.42;;;;;;;3.62;60.70;102337.41;5006744;28;20496;-68
2022/03/06 10:13:28;;;;;;;40.97;19.45;;;;;;;3.32;60.39;102337.13;4993062;28;20133;-69
2022/03/06 10:16:03;;;;;;;41.25;19.75;;;;;;;3.39;61.16;102333.38;4994053;28;20041;-69
2022/03/06 10:18:30;;;;;;;37.95;18.88;;;;;;;3.47;61.19;102338.97;4989346;28;20464;-69
2022/03/06 10:21:01;;;;;;;34.55;18.65;;;;;;;3.47;61.87;102343.28;5011076;28;20256;-69
2022/03/06 10:23:27;;;;;;;44.03;20.38;;;;;;;3.56;61.87;102347.13;4989469;28;20034;-68
2022/03/06 10:26:12;;;;;;;39.38;18.55;;;;;;;3.63;61.35;102343.38;5004155;28;20052;-69
2022/03/06 10:28:51;;;;;;;37.30;19.27;;;;;;;3.82;61.72;102335.63;5003007;28;20528;-69
2022/03/06 10:31:18;;;;;;;41.40;19.65;;;;;;;3.78;61.62;102337.50;4970004;28;20062;-68
2022/03/06 10:33:54;;;;;;;36.30;18.65;;;;;;;3.83;60.65;102338.13;4987778;28;20105;-69
2022/03/06 10:36:29;;;;;;;38.47;18.85;;;;;;;3.80;61.90;102332.28;4990052;28;20038;-69
2022/03/06 10:38:54;;;;;;;37.47;19.17;;;;;;;3.98;61.17;102333.16;4987747;28;20046;-68
2022/03/06 10:41:20;;;;;;;37.80;18.83;;;;;;;4.03;61.21;102329.44;4973789;28;20041;-68
2022/03/06 10:43:48;;;;;;;32.15;17.90;;;;;;;4.04;60.15;102335.41;4971759;28;20666;-69
2022/03/06 10:46:16;;;;;;;39.33;18.95;;;;;;;4.03;61.08;102328.59;4989650;28;20067;-69
2022/03/06 10:48:59;;;;;;;43.25;19.45;;;;;;;4.22;61.06;102323.38;4989552;28;20120;-69
2022/03/06 10:51:26;;;;;;;38.08;19.50;;;;;;;4.30;60.77;102321.25;5002376;28;20413;-69
2022/03/06 10:54:00;;;;;;;33.67;18.83;;;;;;;4.25;60.39;102330.94;4989958;28;20053;-68
2022/03/06 10:56:27;;;;;;;38.80;20.10;;;;;;;4.08;60.19;102324.06;4987513;28;20034;-68
2022/03/06 10:58:54;;;;;;;37.67;19.10;;;;;;;4.09;60.30;102326.56;4988224;28;20038;-69
2022/03/06 11:01:20;;;;;;;35.20;18.23;;;;;;;4.38;59.28;102326.81;4989456;28;20042;-69
2022/03/06 11:03:46;;;;;;;36.33;17.90;;;;;;;4.40;58.71;102316.47;4990434;28;20406;-69
2022/03/06 11:06:12;;;;;;;36.40;18.92;;;;;;;4.44;59.50;102316.22;4989667;28;20084;-69
2022/03/06 11:08:39;;;;;;;38.10;18.98;;;;;;;4.66;59.59;102312.56;4987612;28;20038;-69